Time;durP1;ratioP1;P1;durP2;ratioP2;P2;SDS_P1;SDS_P2;PMS_P1;PMS_P2;Temp;Humidity;BMP_temperature;BMP_pressure;BME280_temperature;BME280_humidity;BME280_pressure;Samples;Min_cycle;Max_cycle;Signal;HPM_P1;HPM_P2
2023/08/07 00:02:14;;;;;;;3.63;1.10;;;16.30;81.70;;;;;;4952705;28;20105;-69
2023/08/07 00:04:42;;;;;;;4.97;1.23;;;16.40;81.90;;;;;;4955261;28;20039;-69
2023/08/07 00:07:09;;;;;;;8.55;1.20;;;16.60;81.20;;;;;;4959572;28;20389;-69
2023/08/07 00:09:39;;;;;;;2.85;1.50;;;17.00;78.90;;;;;;4952133;28;20043;-70
2023/08/07 00:12:07;;;;;;;7.05;1.15;;;17.10;77.90;;;;;;4957981;28;20495;-69
2023/08/07 00:14:34;;;;;;;2.75;1.10;;;17.20;79.20;;;;;;4945697;28;20042;-69
2023/08/07 00:17:01;;;;;;;6.38;1.30;;;17.30;79.30;;;;;;4956069;28;20090;-69
2023/08/07 00:19:29;;;;;;;2.85;1.30;;;17.40;78.40;;;;;;4958612;28;20397;-69
2023/08/07 00:21:56;;;;;;;3.50;1.20;;;17.50;76.70;;;;;;4954223;28;20027;-71
2023/08/07 00:24:23;;;;;;;2.85;1.17;;;17.60;76.20;;;;;;4950505;28;20499;-69
2023/08/07 00:26:50;;;;;;;7.22;1.33;;;17.70;75.90;;;;;;4958187;28;20119;-68
2023/08/07 00:29:18;;;;;;;3.47;1.13;;;18.20;75.30;;;;;;4956822;28;20497;-69
2023/08/07 00:31:45;;;;;;;7.25;1.38;;;19.40;72.80;;;;;;4958133;28;20142;-69
2023/08/07 00:34:12;;;;;;;3.47;1.02;;;19.90;68.90;;;;;;4955889;28;20032;-70
2023/08/07 00:36:40;;;;;;;6.05;1.30;;;20.10;68.10;;;;;;4953083;28;20058;-69
2023/08/07 00:39:08;;;;;;;2.63;0.95;;;20.00;67.80;;;;;;4956627;28;20911;-71
2023/08/07 00:41:35;;;;;;;2.88;1.02;;;20.70;65.00;;;;;;4949966;28;20055;-68
2023/08/07 00:44:03;;;;;;;7.10;1.13;;;20.70;64.10;;;;;;4955769;28;20073;-70
2023/08/07 00:46:31;;;;;;;3.85;1.42;;;20.60;64.70;;;;;;4957577;28;20449;-70
2023/08/07 00:48:58;;;;;;;5.35;1.40;;;20.40;64.30;;;;;;4954641;28;20074;-70
2023/08/07 00:51:26;;;;;;;3.28;1.10;;;20.00;66.30;;;;;;4953003;28;23105;-69
2023/08/07 00:53:53;;;;;;;4.40;1.30;;;20.20;66.20;;;;;;4955364;28;20071;-70
2023/08/07 00:56:22;;;;;;;6.78;1.52;;;20.30;66.50;;;;;;4958179;28;20058;-69
2023/08/07 00:58:50;;;;;;;3.80;1.40;;;20.10;67.00;;;;;;4942706;28;20553;-70
2023/08/07 01:01:18;;;;;;;6.22;1.45;;;20.30;66.50;;;;;;4955366;28;20103;-70
2023/08/07 01:03:45;;;;;;;6.05;1.60;;;20.80;64.60;;;;;;4951705;28;20436;-70
2023/08/07 01:06:13;;;;;;;3.35;1.23;;;20.80;64.10;;;;;;4953478;28;20035;-70
2023/08/07 01:08:40;;;;;;;3.15;0.77;;;20.40;66.10;;;;;;4957797;28;20045;-70
2023/08/07 01:11:25;;;;;;;4.35;1.00;;;20.40;66.60;;;;;;4953765;28;20107;-69
2023/08/07 01:14:34;;;;;;;4.25;0.90;;;20.60;66.40;;;;;;4950913;28;20114;-70
2023/08/07 01:17:15;;;;;;;5.15;1.20;;;21.20;65.30;;;;;;4939187;28;20095;-69
2023/08/07 01:19:42;;;;;;;2.92;0.93;;;21.30;63.00;;;;;;4951013;28;20031;-70
2023/08/07 01:22:17;;;;;;;6.15;1.20;;;21.40;62.50;;;;;;4952604;28;20093;-71
2023/08/07 01:24:46;;;;;;;1.88;1.00;;;21.10;64.20;;;;;;4944630;28;20120;-69
2023/08/07 01:27:20;;;;;;;2.58;1.10;;;21.00;65.40;;;;;;4946495;28;20043;-70
2023/08/07 01:30:05;;;;;;;5.55;0.80;;;20.90;64.60;;;;;;4951273;28;20043;-69
2023/08/07 01:32:36;;;;;;;3.22;0.65;;;21.00;64.70;;;;;;4947363;28;20378;-70
2023/08/07 01:35:05;;;;;;;7.50;1.33;;;20.90;64.00;;;;;;4948673;28;20090;-69
2023/08/07 01:37:38;;;;;;;3.95;1.08;;;20.90;66.80;;;;;;4945307;28;20126;-69
2023/08/07 01:40:08;;;;;;;5.65;0.80;;;20.80;65.50;;;;;;4947981;28;20477;-69
2023/08/07 01:42:37;;;;;;;2.20;0.75;;;20.50;67.80;;;;;;4949820;28;20042;-69
2023/08/07 01:45:06;;;;;;;2.58;0.85;;;20.30;68.30;;;;;;4949760;28;20032;-71
2023/08/07 01:47:33;;;;;;;5.63;0.77;;;20.20;66.40;;;;;;4946544;28;20042;-69
2023/08/07 01:50:00;;;;;;;5.20;1.27;;;20.40;66.80;;;;;;4949269;28;20039;-68
2023/08/07 01:52:28;;;;;;;3.75;1.08;;;20.50;66.80;;;;;;4945613;28;20570;-70
2023/08/07 01:54:55;;;;;;;5.07;1.30;;;20.50;67.80;;;;;;4940596;28;20032;-69
2023/08/07 01:57:22;;;;;;;2.90;0.80;;;20.50;68.40;;;;;;4948831;28;20043;-69
2023/08/07 01:59:50;;;;;;;4.68;0.98;;;20.50;66.80;;;;;;4929064;28;20094;-69
2023/08/07 02:02:17;;;;;;;4.63;0.90;;;20.70;66.00;;;;;;4946444;28;20035;-69
2023/08/07 02:04:44;;;;;;;2.65;0.93;;;21.10;64.00;;;;;;4940052;28;20031;-69
2023/08/07 02:07:12;;;;;;;2.42;0.85;;;20.70;65.00;;;;;;4948225;28;20436;-71
2023/08/07 02:09:39;;;;;;;5.63;1.10;;;20.40;66.10;;;;;;4945003;28;21686;-70
2023/08/07 02:12:08;;;;;;;4.05;1.08;;;20.60;66.90;;;;;;4948113;28;20138;-71
2023/08/07 02:14:35;;;;;;;2.75;0.90;;;20.40;65.70;;;;;;4952056;28;20039;-70
2023/08/07 02:17:02;;;;;;;4.15;0.90;;;20.30;67.10;;;;;;4956760;28;20101;-69
2023/08/07 02:19:30;;;;;;;4.38;1.25;;;20.10;68.70;;;;;;4951976;28;20081;-70
2023/08/07 02:21:57;;;;;;;1.65;0.88;;;19.90;68.10;;;;;;4950204;28;20027;-70
2023/08/07 02:24:25;;;;;;;3.50;0.55;;;20.20;66.50;;;;;;4942923;28;20326;-69
2023/08/07 02:26:52;;;;;;;2.45;0.82;;;19.90;67.10;;;;;;4958630;28;20023;-70
2023/08/07 02:29:19;;;;;;;2.13;0.50;;;19.60;68.80;;;;;;4949887;28;20493;-69
2023/08/07 02:31:47;;;;;;;2.63;0.60;;;19.30;69.80;;;;;;4954356;28;20493;-68
2023/08/07 02:34:14;;;;;;;3.72;1.13;;;19.20;70.40;;;;;;4954537;28;20027;-69
2023/08/07 02:36:41;;;;;;;2.88;0.80;;;19.00;71.10;;;;;;4953810;28;20037;-70
2023/08/07 02:39:09;;;;;;;6.13;1.60;;;18.80;73.30;;;;;;4949853;28;20189;-69
2023/08/07 02:41:36;;;;;;;3.38;1.38;;;18.40;74.20;;;;;;4951945;28;20031;-68
2023/08/07 02:44:03;;;;;;;2.95;0.82;;;18.50;74.50;;;;;;4952415;28;20035;-70
2023/08/07 02:46:31;;;;;;;7.68;1.20;;;18.20;75.90;;;;;;4956816;28;20031;-69
2023/08/07 02:48:58;;;;;;;3.72;0.70;;;18.30;75.70;;;;;;4951930;28;20074;-70
2023/08/07 02:51:26;;;;;;;5.57;1.20;;;18.30;76.50;;;;;;4952077;28;20027;-70
2023/08/07 02:53:53;;;;;;;3.90;1.30;;;18.10;77.70;;;;;;4951113;28;20054;-69
2023/08/07 02:56:20;;;;;;;2.95;0.82;;;17.90;78.70;;;;;;4951147;28;20041;-69
2023/08/07 02:58:48;;;;;;;3.08;0.70;;;17.60;80.70;;;;;;4949704;28;20102;-69
2023/08/07 03:01:15;;;;;;;3.15;0.90;;;17.40;82.60;;;;;;4946664;28;20543;-69
2023/08/07 03:03:42;;;;;;;2.80;0.80;;;17.40;83.40;;;;;;4947433;28;20027;-69
2023/08/07 03:06:09;;;;;;;1.05;0.70;;;17.30;84.10;;;;;;4952067;28;20031;-69
2023/08/07 03:08:37;;;;;;;2.67;0.60;;;17.30;85.20;;;;;;4948863;28;20388;-70
2023/08/07 03:11:04;;;;;;;1.15;0.52;;;17.30;85.80;;;;;;4946557;28;20026;-70
2023/08/07 03:13:31;;;;;;;2.67;0.73;;;17.40;85.80;;;;;;4944954;28;20169;-70
2023/08/07 03:16:07;;;;;;;3.03;0.85;;;17.50;86.20;;;;;;4948606;28;20422;-70
2023/08/07 03:18:34;;;;;;;1.98;0.45;;;17.40;86.10;;;;;;4943567;28;20354;-70
2023/08/07 03:21:02;;;;;;;3.63;1.05;;;17.50;85.90;;;;;;4945913;28;20046;-69
2023/08/07 03:23:30;;;;;;;1.15;0.60;;;17.60;86.30;;;;;;4949938;28;20046;-70
2023/08/07 03:26:09;;;;;;;2.10;0.50;;;17.80;85.30;;;;;;4950158;28;20477;-69
2023/08/07 03:28:37;;;;;;;1.30;0.47;;;18.00;83.90;;;;;;4946598;28;20137;-69
2023/08/07 03:31:05;;;;;;;1.08;0.50;;;18.30;82.80;;;;;;4941642;28;20031;-70
2023/08/07 03:33:33;;;;;;;1.20;0.40;;;18.30;82.60;;;;;;4944287;28;20027;-69
2023/08/07 03:36:00;;;;;;;1.35;0.50;;;18.30;82.50;;;;;;4951750;28;20038;-69
2023/08/07 03:38:27;;;;;;;0.80;0.40;;;18.30;82.50;;;;;;4950142;28;20035;-70
2023/08/07 03:40:55;;;;;;;3.25;0.55;;;18.40;81.90;;;;;;4950430;28;20465;-69
2023/08/07 03:43:22;;;;;;;1.70;0.40;;;18.50;81.70;;;;;;4948272;28;20031;-69
2023/08/07 03:45:58;;;;;;;0.75;0.30;;;18.50;81.50;;;;;;4950056;28;20693;-69
2023/08/07 03:48:25;;;;;;;1.42;0.50;;;18.60;80.70;;;;;;4948940;28;20087;-71
2023/08/07 03:50:53;;;;;;;2.88;0.47;;;18.60;79.90;;;;;;4950944;28;20085;-68
2023/08/07 03:53:20;;;;;;;1.25;0.55;;;18.40;81.90;;;;;;4950636;28;20058;-67
2023/08/07 03:55:51;;;;;;;0.57;0.40;;;18.50;80.60;;;;;;4955685;28;20077;-66
2023/08/07 03:58:19;;;;;;;2.13;0.50;;;18.30;81.20;;;;;;4949830;28;20047;-68
2023/08/07 04:00:46;;;;;;;3.88;0.98;;;18.30;81.00;;;;;;4947995;28;20039;-69
2023/08/07 04:03:13;;;;;;;2.08;1.10;;;18.20;82.00;;;;;;4948523;28;20076;-70
2023/08/07 04:05:41;;;;;;;2.28;0.70;;;18.10;81.90;;;;;;4952681;28;20093;-70
2023/08/07 04:08:08;;;;;;;1.90;0.40;;;18.00;83.50;;;;;;4947932;28;20126;-70
2023/08/07 04:10:35;;;;;;;1.02;0.30;;;18.00;86.10;;;;;;4954295;28;20031;-70
2023/08/07 04:13:03;;;;;;;1.48;0.50;;;17.80;87.80;;;;;;4950214;28;20020;-70
2023/08/07 04:15:31;;;;;;;2.75;0.35;;;17.80;87.70;;;;;;4950726;28;20638;-70
2023/08/07 04:17:58;;;;;;;1.98;0.57;;;17.80;88.30;;;;;;4948666;28;20054;-70
2023/08/07 04:20:26;;;;;;;5.05;2.78;;;17.70;89.40;;;;;;4951005;28;20031;-70
2023/08/07 04:22:53;;;;;;;11.73;6.95;;;17.90;88.40;;;;;;4948692;28;20063;-70
2023/08/07 04:25:20;;;;;;;1.40;0.85;;;17.80;89.00;;;;;;4955880;28;20080;-70
2023/08/07 04:27:48;;;;;;;2.83;0.50;;;17.90;86.60;;;;;;4970539;28;20064;-70
2023/08/07 04:30:15;;;;;;;3.17;0.88;;;17.90;85.70;;;;;;4949396;28;20537;-69
2023/08/07 04:32:42;;;;;;;4.63;2.42;;;17.60;85.80;;;;;;4951765;28;20035;-69
2023/08/07 04:35:10;;;;;;;4.78;2.30;;;17.50;87.10;;;;;;4948866;28;20042;-69
2023/08/07 04:37:37;;;;;;;1.02;0.70;;;17.60;85.20;;;;;;4950010;28;20073;-69
2023/08/07 04:40:05;;;;;;;0.95;0.52;;;17.50;85.80;;;;;;4948622;28;20020;-69
2023/08/07 04:42:32;;;;;;;1.67;1.17;;;17.30;85.30;;;;;;4955930;28;20023;-69
2023/08/07 04:44:59;;;;;;;2.55;0.88;;;17.40;86.00;;;;;;4953063;28;20028;-70
2023/08/07 04:47:29;;;;;;;1.42;0.55;;;17.20;86.00;;;;;;4953985;28;20118;-69
2023/08/07 04:49:56;;;;;;;2.50;0.60;;;17.20;85.90;;;;;;4952520;28;20043;-70
2023/08/07 04:52:23;;;;;;;0.98;0.50;;;17.30;85.70;;;;;;4955051;28;20038;-70
2023/08/07 04:54:51;;;;;;;1.42;1.00;;;17.30;85.20;;;;;;4952137;28;20196;-69
2023/08/07 04:57:18;;;;;;;2.42;0.80;;;17.20;84.40;;;;;;4951383;28;20094;-70
2023/08/07 04:59:45;;;;;;;1.02;0.60;;;17.20;85.00;;;;;;4954261;28;20508;-70
2023/08/07 05:02:13;;;;;;;2.05;0.90;;;17.10;85.90;;;;;;4954982;28;20036;-70
2023/08/07 05:04:40;;;;;;;1.42;0.90;;;17.10;85.80;;;;;;4953661;28;20118;-70
2023/08/07 05:07:07;;;;;;;1.77;0.60;;;17.10;86.20;;;;;;4955035;28;20397;-70
2023/08/07 05:09:35;;;;;;;2.53;0.95;;;17.30;84.80;;;;;;4949905;28;20060;-70
2023/08/07 05:12:02;;;;;;;3.90;1.00;;;17.20;85.80;;;;;;4952625;28;20042;-69
2023/08/07 05:14:31;;;;;;;2.55;1.25;;;17.30;85.80;;;;;;4948985;28;20031;-70
2023/08/07 05:16:59;;;;;;;1.42;0.50;;;17.60;84.10;;;;;;4969053;28;20027;-69
2023/08/07 05:19:26;;;;;;;2.30;0.80;;;17.50;83.90;;;;;;4951364;28;20397;-70
2023/08/07 05:21:54;;;;;;;2.88;0.95;;;17.60;83.70;;;;;;4955830;28;20112;-70
2023/08/07 05:24:21;;;;;;;1.30;0.73;;;17.50;83.70;;;;;;4951729;28;20377;-70
2023/08/07 05:26:48;;;;;;;2.90;0.60;;;17.60;84.00;;;;;;4954472;28;20058;-70
2023/08/07 05:29:16;;;;;;;1.52;0.52;;;17.70;82.50;;;;;;4951267;28;20039;-70
2023/08/07 05:31:43;;;;;;;1.80;0.70;;;17.50;84.30;;;;;;4947993;28;20483;-70
2023/08/07 05:34:10;;;;;;;2.25;0.70;;;17.50;84.20;;;;;;4951110;28;20031;-69
2023/08/07 05:36:39;;;;;;;1.80;0.40;;;17.60;84.10;;;;;;4952650;28;20034;-69
2023/08/07 05:39:06;;;;;;;0.63;0.60;;;17.70;82.50;;;;;;4951852;28;20027;-70
2023/08/07 05:41:34;;;;;;;1.08;0.40;;;17.70;83.20;;;;;;4952276;28;20031;-69
2023/08/07 05:44:01;;;;;;;1.08;0.40;;;17.80;80.70;;;;;;4950615;28;20031;-70
2023/08/07 05:46:28;;;;;;;0.30;0.22;;;17.80;81.10;;;;;;4953560;28;20588;-70
2023/08/07 05:48:55;;;;;;;0.63;0.30;;;17.60;83.90;;;;;;4952367;28;20048;-69
2023/08/07 05:51:23;;;;;;;2.95;0.50;;;17.60;84.10;;;;;;4952647;28;20113;-69
2023/08/07 05:53:50;;;;;;;0.68;0.30;;;17.50;84.40;;;;;;4948294;28;20038;-68
2023/08/07 05:56:17;;;;;;;1.20;0.30;;;17.30;85.20;;;;;;4952394;28;20114;-71
2023/08/07 05:58:45;;;;;;;3.03;0.70;;;17.10;86.00;;;;;;4948464;28;20051;-69
2023/08/07 06:01:12;;;;;;;2.67;0.47;;;17.10;86.90;;;;;;4949935;28;20038;-70
2023/08/07 06:03:39;;;;;;;3.35;0.60;;;16.90;87.20;;;;;;4951774;28;20457;-69
2023/08/07 06:06:07;;;;;;;1.08;0.57;;;16.90;87.00;;;;;;4953126;28;20027;-69
2023/08/07 06:08:34;;;;;;;4.22;0.80;;;16.80;86.00;;;;;;4946426;28;20465;-68
2023/08/07 06:11:07;;;;;;;1.85;0.43;;;16.60;86.70;;;;;;4955316;28;20113;-69
2023/08/07 06:13:36;;;;;;;1.95;0.50;;;16.60;87.00;;;;;;4951144;28;20035;-69
2023/08/07 06:16:03;;;;;;;2.45;0.70;;;16.50;87.50;;;;;;4950461;28;20470;-69
2023/08/07 06:18:31;;;;;;;1.67;0.60;;;16.40;87.50;;;;;;4948544;28;20158;-69
2023/08/07 06:20:58;;;;;;;2.67;0.60;;;16.40;87.90;;;;;;4952170;28;20027;-70
2023/08/07 06:23:26;;;;;;;2.17;0.70;;;16.30;87.90;;;;;;4947734;28;20031;-70
2023/08/07 06:25:53;;;;;;;3.95;0.70;;;16.30;88.60;;;;;;4950994;28;20027;-70
2023/08/07 06:28:21;;;;;;;10.20;1.05;;;16.30;89.00;;;;;;4952551;28;20232;-70
2023/08/07 06:30:48;;;;;;;2.10;1.10;;;16.30;89.60;;;;;;4952035;28;20023;-71
2023/08/07 06:33:16;;;;;;;4.57;1.08;;;16.30;90.10;;;;;;4948193;28;20121;-70
2023/08/07 06:35:43;;;;;;;5.43;0.85;;;16.30;90.60;;;;;;4952319;28;20034;-70
2023/08/07 06:38:10;;;;;;;6.18;1.38;;;16.30;90.80;;;;;;4937959;28;20051;-70
2023/08/07 06:40:39;;;;;;;4.15;2.08;;;16.30;90.80;;;;;;4952346;28;20114;-70
2023/08/07 06:43:06;;;;;;;3.85;0.80;;;16.20;91.00;;;;;;4949017;28;20031;-70
2023/08/07 06:45:34;;;;;;;2.08;0.77;;;16.20;90.80;;;;;;4953026;28;20059;-69
2023/08/07 06:48:01;;;;;;;2.33;0.70;;;16.10;90.80;;;;;;4950266;28;20027;-70
2023/08/07 06:50:28;;;;;;;3.67;0.68;;;16.10;90.80;;;;;;4951020;28;20050;-70
2023/08/07 06:52:56;;;;;;;2.15;0.55;;;16.00;90.90;;;;;;4952832;28;20042;-70
2023/08/07 06:55:23;;;;;;;3.03;0.52;;;16.00;90.90;;;;;;4949370;28;20043;-71
2023/08/07 06:57:51;;;;;;;3.85;0.65;;;15.90;90.70;;;;;;4966267;28;20608;-71
2023/08/07 07:00:18;;;;;;;1.55;0.43;;;15.90;91.00;;;;;;4944842;28;20035;-70
2023/08/07 07:02:45;;;;;;;1.58;0.65;;;15.90;91.00;;;;;;4945734;28;20035;-70
2023/08/07 07:05:13;;;;;;;2.10;0.68;;;15.80;91.40;;;;;;4944636;28;20035;-70
2023/08/07 07:07:40;;;;;;;3.20;0.60;;;15.80;91.20;;;;;;4949232;28;20041;-71
2023/08/07 07:10:08;;;;;;;3.10;1.50;;;15.70;91.40;;;;;;4944467;28;20158;-70
2023/08/07 07:12:35;;;;;;;1.10;0.57;;;15.70;91.60;;;;;;4940318;28;22263;-70
2023/08/07 07:15:03;;;;;;;0.77;0.30;;;15.60;91.40;;;;;;4942042;28;20031;-71
2023/08/07 07:17:30;;;;;;;0.90;0.50;;;15.60;91.60;;;;;;4942146;28;20036;-71
2023/08/07 07:19:57;;;;;;;1.40;0.57;;;15.50;91.50;;;;;;4945546;28;20031;-71
2023/08/07 07:22:25;;;;;;;1.17;0.60;;;15.60;91.60;;;;;;4945640;28;20020;-71
2023/08/07 07:24:52;;;;;;;2.15;1.10;;;15.50;91.50;;;;;;4944294;28;20030;-69
2023/08/07 07:27:21;;;;;;;3.28;1.60;;;15.50;91.60;;;;;;4951826;28;20033;-68
2023/08/07 07:29:49;;;;;;;2.17;1.45;;;15.30;91.80;;;;;;4940695;28;20133;-69
2023/08/07 07:32:17;;;;;;;3.83;1.00;;;15.30;92.00;;;;;;4966119;28;20565;-69
2023/08/07 07:34:44;;;;;;;3.95;0.80;;;15.20;92.20;;;;;;4949872;28;20030;-70
2023/08/07 07:37:14;;;;;;;5.03;0.90;;;15.20;92.30;;;;;;4944799;28;20121;-69
2023/08/07 07:39:42;;;;;;;2.20;1.20;;;15.20;92.40;;;;;;4940067;28;20125;-69
2023/08/07 07:42:09;;;;;;;2.38;1.00;;;15.10;92.60;;;;;;4949207;28;20059;-68
2023/08/07 07:44:40;;;;;;;1.67;0.80;;;15.10;92.80;;;;;;4950933;28;20110;-69
2023/08/07 07:47:08;;;;;;;2.40;1.30;;;15.00;92.90;;;;;;4950173;28;20043;-69
2023/08/07 07:49:36;;;;;;;4.20;1.70;;;14.90;93.40;;;;;;4946878;28;20078;-69
2023/08/07 07:52:03;;;;;;;3.20;1.85;;;15.00;93.60;;;;;;4941433;28;20031;-69
2023/08/07 07:54:30;;;;;;;4.03;1.42;;;14.90;93.60;;;;;;4951571;28;20096;-69
2023/08/07 07:56:58;;;;;;;4.80;2.22;;;14.80;93.90;;;;;;4956021;28;20031;-68
2023/08/07 07:59:25;;;;;;;4.45;2.35;;;14.80;94.10;;;;;;4943966;28;20388;-68
2023/08/07 08:01:53;;;;;;;6.88;2.40;;;14.80;94.20;;;;;;4945335;28;20059;-69
2023/08/07 08:04:20;;;;;;;6.50;2.00;;;14.80;94.40;;;;;;4944300;28;20031;-69
2023/08/07 08:06:51;;;;;;;3.30;1.20;;;14.70;94.80;;;;;;4941616;28;20063;-70
2023/08/07 08:09:18;;;;;;;6.15;1.20;;;14.70;95.00;;;;;;4942708;28;20346;-69
2023/08/07 08:11:45;;;;;;;4.20;1.45;;;14.80;95.20;;;;;;4944736;28;20035;-69
2023/08/07 08:14:13;;;;;;;2.78;1.23;;;14.80;95.30;;;;;;4945230;28;20037;-69
2023/08/07 08:16:40;;;;;;;6.38;1.25;;;14.80;95.40;;;;;;4930667;28;20080;-69
2023/08/07 08:19:09;;;;;;;2.55;0.90;;;14.80;95.40;;;;;;4946515;28;20020;-70
2023/08/07 08:21:37;;;;;;;1.80;0.80;;;14.70;95.60;;;;;;4934736;28;20085;-68
2023/08/07 08:24:05;;;;;;;3.33;1.00;;;14.70;95.80;;;;;;4951667;28;20110;-70
2023/08/07 08:26:33;;;;;;;1.77;0.85;;;14.70;95.90;;;;;;4953583;28;20035;-70
2023/08/07 08:29:00;;;;;;;5.35;1.70;;;14.70;95.90;;;;;;4941581;28;20043;-69
2023/08/07 08:31:27;;;;;;;4.78;1.90;;;14.70;96.00;;;;;;4953108;28;20035;-69
2023/08/07 08:33:55;;;;;;;8.02;2.50;;;14.70;96.00;;;;;;4949954;28;20046;-70
2023/08/07 08:36:23;;;;;;;6.03;4.50;;;14.60;96.10;;;;;;4952484;28;20481;-68
2023/08/07 08:38:51;;;;;;;8.30;6.22;;;14.60;96.30;;;;;;4953735;28;20066;-70
2023/08/07 08:41:19;;;;;;;4.40;3.20;;;14.60;96.30;;;;;;4956521;28;20385;-69
2023/08/07 08:43:50;;;;;;;8.63;3.40;;;14.50;96.20;;;;;;4954713;28;20156;-70
2023/08/07 08:46:19;;;;;;;6.10;4.72;;;14.30;96.80;;;;;;4957648;28;20028;-70
2023/08/07 08:48:52;;;;;;;5.70;4.75;;;14.40;96.70;;;;;;4945570;28;20464;-69
2023/08/07 08:51:21;;;;;;;5.10;4.60;;;14.40;96.80;;;;;;4952465;28;20031;-69
2023/08/07 08:53:49;;;;;;;7.70;2.80;;;14.40;96.60;;;;;;4952719;28;20037;-71
2023/08/07 08:56:17;;;;;;;4.00;3.00;;;14.40;96.90;;;;;;4955708;28;20030;-70
2023/08/07 08:58:44;;;;;;;8.27;4.13;;;14.50;97.10;;;;;;4942097;28;20075;-70
2023/08/07 09:01:13;;;;;;;5.07;3.65;;;14.30;96.80;;;;;;4944186;28;21008;-69
2023/08/07 09:03:40;;;;;;;5.32;2.17;;;14.20;97.30;;;;;;4947364;28;20039;-69
2023/08/07 09:06:09;;;;;;;3.70;2.40;;;14.10;97.40;;;;;;4957046;28;20027;-69
2023/08/07 09:08:38;;;;;;;9.77;5.68;;;14.00;97.60;;;;;;4949144;28;20090;-69
2023/08/07 09:11:07;;;;;;;10.82;8.10;;;14.00;97.60;;;;;;4953391;28;20078;-70
2023/08/07 09:13:36;;;;;;;17.10;11.88;;;14.00;97.80;;;;;;4953600;28;20181;-69
2023/08/07 09:16:06;;;;;;;9.57;7.50;;;14.00;97.70;;;;;;4953802;28;20086;-69
2023/08/07 09:18:34;;;;;;;6.95;3.67;;;13.90;97.70;;;;;;4948239;28;20404;-70
2023/08/07 09:21:02;;;;;;;7.95;5.55;;;13.90;97.70;;;;;;4953069;28;20511;-70
2023/08/07 09:23:29;;;;;;;12.32;9.73;;;13.90;97.80;;;;;;4950389;28;20405;-69
2023/08/07 09:26:08;;;;;;;12.18;9.13;;;13.90;97.70;;;;;;4948489;28;20161;-70
2023/08/07 09:28:38;;;;;;;10.07;4.72;;;13.80;97.70;;;;;;4935268;28;20035;-69
2023/08/07 09:31:14;;;;;;;5.35;3.53;;;13.80;97.80;;;;;;4948443;28;20075;-69
2023/08/07 09:33:48;;;;;;;3.65;1.80;;;13.80;97.90;;;;;;4937203;28;20027;-69
2023/08/07 09:36:17;;;;;;;7.60;2.35;;;13.80;97.90;;;;;;4944138;28;20046;-69
2023/08/07 09:38:49;;;;;;;6.55;4.03;;;13.80;97.90;;;;;;4949520;28;20063;-70
2023/08/07 09:41:20;;;;;;;4.57;3.50;;;13.80;98.00;;;;;;4950462;28;20035;-67
2023/08/07 09:43:47;;;;;;;5.97;2.88;;;13.70;98.00;;;;;;4956481;28;20499;-70
2023/08/07 09:46:14;;;;;;;5.95;4.07;;;13.70;98.20;;;;;;4958999;28;20106;-68
2023/08/07 09:48:43;;;;;;;5.93;3.60;;;13.70;98.30;;;;;;4951904;28;20404;-69
2023/08/07 09:51:11;;;;;;;3.58;2.55;;;13.80;98.20;;;;;;4950178;28;20035;-70
2023/08/07 09:53:39;;;;;;;3.88;2.28;;;13.80;98.10;;;;;;4952038;28;20054;-71
2023/08/07 09:56:07;;;;;;;4.15;2.13;;;13.70;98.10;;;;;;4930088;28;20078;-70
2023/08/07 09:58:34;;;;;;;4.47;2.13;;;13.70;98.10;;;;;;4947349;28;20054;-69
2023/08/07 10:01:09;;;;;;;5.75;2.35;;;13.70;98.30;;;;;;4952382;28;20026;-71
2023/08/07 10:03:36;;;;;;;5.78;1.65;;;13.70;98.30;;;;;;4952533;28;20119;-70
2023/08/07 10:06:04;;;;;;;3.10;1.65;;;13.60;98.30;;;;;;4946064;28;20114;-68
2023/08/07 10:08:32;;;;;;;7.65;2.08;;;13.60;98.40;;;;;;4948192;28;20035;-70
2023/08/07 10:11:00;;;;;;;5.03;2.53;;;13.60;98.30;;;;;;4956300;28;20118;-69
2023/08/07 10:13:29;;;;;;;4.82;2.42;;;13.60;98.30;;;;;;4947951;28;20090;-69
2023/08/07 10:15:58;;;;;;;5.22;2.97;;;13.50;98.30;;;;;;4948547;28;20464;-69
2023/08/07 10:18:25;;;;;;;5.13;2.53;;;13.60;98.30;;;;;;4952052;28;20031;-70
2023/08/07 10:20:53;;;;;;;6.30;2.67;;;13.50;98.10;;;;;;4948945;28;20038;-70
2023/08/07 10:23:22;;;;;;;6.25;2.75;;;13.50;98.10;;;;;;4946753;28;20031;-69
2023/08/07 10:25:50;;;;;;;7.35;2.80;;;13.50;98.30;;;;;;4943770;28;20027;-70
2023/08/07 10:28:20;;;;;;;6.82;2.22;;;13.40;98.20;;;;;;4944430;28;20803;-69
2023/08/07 10:30:48;;;;;;;7.18;2.20;;;13.40;98.20;;;;;;4953812;28;20023;-70
2023/08/07 10:33:17;;;;;;;5.88;2.33;;;13.40;98.30;;;;;;4950890;28;20628;-70
2023/08/07 10:35:48;;;;;;;3.85;2.13;;;13.40;98.40;;;;;;4952356;28;20039;-70
2023/08/07 10:38:18;;;;;;;8.02;2.42;;;13.40;98.30;;;;;;4948705;28;20035;-69
2023/08/07 10:41:12;;;;;;;3.08;2.22;;;13.40;98.20;;;;;;4952185;28;20034;-69
2023/08/07 10:43:45;;;;;;;6.55;2.47;;;13.40;98.20;;;;;;4952235;28;20035;-69
2023/08/07 10:46:13;;;;;;;4.40;2.60;;;13.40;98.20;;;;;;4954981;28;20035;-69
2023/08/07 10:48:48;;;;;;;6.68;2.72;;;13.40;98.10;;;;;;4952968;28;20035;-69
2023/08/07 10:51:17;;;;;;;3.72;2.30;;;13.40;98.20;;;;;;4950288;28;20031;-69
2023/08/07 10:53:51;;;;;;;6.38;3.00;;;13.40;98.20;;;;;;4955923;28;20050;-69
2023/08/07 10:56:41;;;;;;;10.95;3.00;;;13.30;98.20;;;;;;4939309;28;20015;-70
2023/08/07 10:59:13;;;;;;;6.10;3.15;;;13.30;98.30;;;;;;4950329;28;20054;-70
2023/08/07 11:01:41;;;;;;;7.57;2.55;;;13.30;98.10;;;;;;4951942;28;20037;-69
2023/08/07 11:04:11;;;;;;;5.10;3.05;;;13.20;98.30;;;;;;4948823;28;20082;-68
2023/08/07 11:06:40;;;;;;;5.95;2.90;;;13.20;98.40;;;;;;4950253;28;20688;-68
2023/08/07 11:09:09;;;;;;;8.95;2.72;;;13.20;98.40;;;;;;4950632;28;20047;-69
2023/08/07 11:11:48;;;;;;;4.30;2.75;;;13.20;98.40;;;;;;4940623;28;20027;-69
2023/08/07 11:14:17;;;;;;;7.45;2.95;;;13.20;98.40;;;;;;4949628;28;20031;-69
2023/08/07 11:16:47;;;;;;;5.55;3.10;;;13.20;98.40;;;;;;4953171;28;20023;-69
2023/08/07 11:19:19;;;;;;;4.82;3.00;;;13.20;98.20;;;;;;4952228;28;20058;-68
2023/08/07 11:21:48;;;;;;;5.03;2.80;;;13.10;98.40;;;;;;4950951;28;20028;-68
2023/08/07 11:24:19;;;;;;;9.00;3.22;;;13.20;98.40;;;;;;4948054;28;20023;-69
2023/08/07 11:26:47;;;;;;;8.38;3.33;;;13.20;98.10;;;;;;4937255;28;20110;-69
2023/08/07 11:29:21;;;;;;;6.85;3.38;;;13.10;98.30;;;;;;4941948;28;20843;-70
2023/08/07 11:31:50;;;;;;;7.20;3.45;;;13.00;98.40;;;;;;4946380;28;20034;-69
2023/08/07 11:34:20;;;;;;;5.88;3.40;;;12.90;98.50;;;;;;4954760;28;20027;-68
2023/08/07 11:36:48;;;;;;;10.13;3.50;;;12.90;98.60;;;;;;4944736;28;20031;-69
2023/08/07 11:39:16;;;;;;;6.82;4.05;;;12.80;98.70;;;;;;4955378;28;20138;-69
2023/08/07 11:41:44;;;;;;;8.32;5.22;;;12.80;98.70;;;;;;4950157;28;20093;-69
2023/08/07 11:44:14;;;;;;;12.07;4.65;;;12.70;99.00;;;;;;4941500;28;20392;-70
2023/08/07 11:47:29;;;;;;;9.93;5.45;;;12.70;98.80;;;;;;4929807;28;20035;-71
2023/08/07 11:50:15;;;;;;;10.45;5.63;;;12.70;98.70;;;;;;4961228;28;20444;-69
2023/08/07 11:52:44;;;;;;;8.98;6.22;;;12.60;98.80;;;;;;4943724;28;20545;-68
2023/08/07 11:55:14;;;;;;;9.32;5.63;;;12.60;99.00;;;;;;4948914;28;20035;-69
2023/08/07 11:57:45;;;;;;;12.65;6.07;;;12.50;98.90;;;;;;4945888;28;20914;-68
2023/08/07 12:00:13;;;;;;;11.23;6.10;;;12.40;99.10;;;;;;4947252;28;20408;-68
2023/08/07 12:02:44;;;;;;;10.80;6.28;;;12.40;99.20;;;;;;4949921;28;20552;-68
2023/08/07 12:05:12;;;;;;;12.57;5.53;;;12.40;99.20;;;;;;4947250;28;20093;-68
2023/08/07 12:07:41;;;;;;;10.88;6.03;;;12.40;99.20;;;;;;4946929;28;20023;-68
2023/08/07 12:10:10;;;;;;;10.13;5.47;;;12.40;99.10;;;;;;4946014;28;20158;-68
2023/08/07 12:12:40;;;;;;;12.52;5.68;;;12.30;99.00;;;;;;4946161;28;20623;-69
2023/08/07 12:15:13;;;;;;;9.55;5.45;;;12.30;99.20;;;;;;4949913;28;20400;-68
2023/08/07 12:17:40;;;;;;;8.70;5.40;;;12.20;99.20;;;;;;4947531;28;20038;-69
2023/08/07 12:20:11;;;;;;;7.53;4.75;;;12.20;99.30;;;;;;4946898;28;20118;-69
2023/08/07 12:22:39;;;;;;;10.50;4.80;;;12.20;99.30;;;;;;4960353;28;20122;-68
2023/08/07 12:25:06;;;;;;;7.93;4.75;;;12.20;99.30;;;;;;4946111;28;20496;-68
2023/08/07 12:27:34;;;;;;;7.93;4.53;;;12.30;99.50;;;;;;4950532;28;20039;-69
2023/08/07 12:30:01;;;;;;;8.02;4.55;;;12.20;99.60;;;;;;4944838;28;20082;-69
2023/08/07 12:32:28;;;;;;;8.40;5.38;;;12.20;99.70;;;;;;4949860;28;20073;-68
2023/08/07 12:34:56;;;;;;;9.25;5.00;;;12.20;99.80;;;;;;4933745;28;20126;-68
2023/08/07 12:37:23;;;;;;;11.30;5.05;;;12.20;99.90;;;;;;4948226;28;20027;-67
2023/08/07 12:39:56;;;;;;;9.65;4.72;;;12.20;99.70;;;;;;4953366;28;20940;-68
2023/08/07 12:42:24;;;;;;;10.38;4.90;;;12.20;99.80;;;;;;4946030;28;20039;-68
2023/08/07 12:44:51;;;;;;;12.27;4.75;;;12.30;99.70;;;;;;4950681;28;20035;-68
2023/08/07 12:47:18;;;;;;;12.50;5.35;;;12.30;99.70;;;;;;4947693;28;20046;-68
2023/08/07 12:49:47;;;;;;;9.80;4.88;;;12.30;99.70;;;;;;4951467;28;20058;-68
2023/08/07 12:52:14;;;;;;;7.20;5.38;;;12.30;99.60;;;;;;4944168;28;20468;-68
2023/08/07 12:54:42;;;;;;;6.32;5.00;;;12.30;99.70;;;;;;4948866;28;20100;-68